sensor_id;sensor_type;location;lat;lon;timestamp;P1;durP1;ratioP1;P2;durP2;ratioP2
43337;SDS011;28933;52.492;13.434;2023-02-28T00:00:33;6.53;;;3.92;;
43337;SDS011;28933;52.492;13.434;2023-02-28T00:02:59;7.93;;;3.95;;
43337;SDS011;28933;52.492;13.434;2023-02-28T00:05:25;6.72;;;4.63;;
43337;SDS011;28933;52.492;13.434;2023-02-28T00:07:52;8.13;;;4.28;;
43337;SDS011;28933;52.492;13.434;2023-02-28T00:10:20;8.30;;;4.05;;
43337;SDS011;28933;52.492;13.434;2023-02-28T00:12:53;6.55;;;3.53;;
43337;SDS011;28933;52.492;13.434;2023-02-28T00:15:21;6.00;;;3.70;;
43337;SDS011;28933;52.492;13.434;2023-02-28T00:17:48;4.85;;;3.08;;
43337;SDS011;28933;52.492;13.434;2023-02-28T00:20:14;5.88;;;3.58;;
43337;SDS011;28933;52.492;13.434;2023-02-28T00:22:41;10.43;;;3.97;;
43337;SDS011;28933;52.492;13.434;2023-02-28T00:25:09;5.63;;;3.63;;
43337;SDS011;28933;52.492;13.434;2023-02-28T00:27:36;6.03;;;3.45;;
43337;SDS011;28933;52.492;13.434;2023-02-28T00:30:03;6.75;;;3.88;;
43337;SDS011;28933;52.492;13.434;2023-02-28T00:32:30;5.53;;;3.28;;
43337;SDS011;28933;52.492;13.434;2023-02-28T00:34:56;6.65;;;3.72;;
43337;SDS011;28933;52.492;13.434;2023-02-28T00:37:21;5.68;;;3.33;;
43337;SDS011;28933;52.492;13.434;2023-02-28T00:39:47;6.15;;;3.60;;
43337;SDS011;28933;52.492;13.434;2023-02-28T00:42:12;5.35;;;3.20;;
43337;SDS011;28933;52.492;13.434;2023-02-28T00:44:38;6.68;;;3.45;;
43337;SDS011;28933;52.492;13.434;2023-02-28T00:47:04;6.85;;;3.33;;
43337;SDS011;28933;52.492;13.434;2023-02-28T00:49:30;6.38;;;3.60;;
43337;SDS011;28933;52.492;13.434;2023-02-28T00:51:55;7.78;;;3.40;;
43337;SDS011;28933;52.492;13.434;2023-02-28T00:54:22;5.55;;;3.58;;
43337;SDS011;28933;52.492;13.434;2023-02-28T00:56:48;7.45;;;3.63;;
43337;SDS011;28933;52.492;13.434;2023-02-28T00:59:15;6.00;;;3.65;;
43337;SDS011;28933;52.492;13.434;2023-02-28T01:01:42;6.68;;;3.55;;
43337;SDS011;28933;52.492;13.434;2023-02-28T01:04:09;8.30;;;3.80;;
43337;SDS011;28933;52.492;13.434;2023-02-28T01:06:35;10.38;;;4.30;;
43337;SDS011;28933;52.492;13.434;2023-02-28T01:09:01;5.38;;;3.60;;
43337;SDS011;28933;52.492;13.434;2023-02-28T01:11:27;5.25;;;3.10;;
43337;SDS011;28933;52.492;13.434;2023-02-28T01:13:53;7.47;;;3.83;;
43337;SDS011;28933;52.492;13.434;2023-02-28T01:16:19;6.13;;;3.70;;
43337;SDS011;28933;52.492;13.434;2023-02-28T01:18:44;6.00;;;3.60;;
43337;SDS011;28933;52.492;13.434;2023-02-28T01:21:12;7.10;;;3.42;;
43337;SDS011;28933;52.492;13.434;2023-02-28T01:23:39;7.70;;;4.00;;
43337;SDS011;28933;52.492;13.434;2023-02-28T01:26:06;6.47;;;3.22;;
43337;SDS011;28933;52.492;13.434;2023-02-28T01:28:32;7.03;;;4.35;;
43337;SDS011;28933;52.492;13.434;2023-02-28T01:30:58;7.05;;;4.28;;
43337;SDS011;28933;52.492;13.434;2023-02-28T01:33:24;8.43;;;4.00;;
43337;SDS011;28933;52.492;13.434;2023-02-28T01:35:56;8.82;;;3.65;;
43337;SDS011;28933;52.492;13.434;2023-02-28T01:38:26;6.53;;;4.35;;
43337;SDS011;28933;52.492;13.434;2023-02-28T01:40:52;6.75;;;4.10;;
43337;SDS011;28933;52.492;13.434;2023-02-28T01:43:31;6.63;;;4.35;;
43337;SDS011;28933;52.492;13.434;2023-02-28T01:46:16;6.88;;;3.72;;
43337;SDS011;28933;52.492;13.434;2023-02-28T01:48:52;7.35;;;4.00;;
43337;SDS011;28933;52.492;13.434;2023-02-28T01:51:26;6.40;;;3.67;;
43337;SDS011;28933;52.492;13.434;2023-02-28T01:54:03;8.77;;;5.22;;
43337;SDS011;28933;52.492;13.434;2023-02-28T01:56:38;9.75;;;4.70;;
43337;SDS011;28933;52.492;13.434;2023-02-28T01:59:10;5.80;;;3.88;;
43337;SDS011;28933;52.492;13.434;2023-02-28T02:01:39;8.80;;;4.95;;
43337;SDS011;28933;52.492;13.434;2023-02-28T02:04:05;6.10;;;4.15;;
43337;SDS011;28933;52.492;13.434;2023-02-28T02:06:34;10.18;;;5.32;;
43337;SDS011;28933;52.492;13.434;2023-02-28T02:09:04;9.88;;;4.47;;
43337;SDS011;28933;52.492;13.434;2023-02-28T02:11:29;8.07;;;4.47;;
43337;SDS011;28933;52.492;13.434;2023-02-28T02:14:02;7.80;;;4.93;;
43337;SDS011;28933;52.492;13.434;2023-02-28T02:25:45;6.72;;;4.30;;
43337;SDS011;28933;52.492;13.434;2023-02-28T02:31:48;7.80;;;4.47;;
43337;SDS011;28933;52.492;13.434;2023-02-28T02:34:24;9.48;;;5.07;;
43337;SDS011;28933;52.492;13.434;2023-02-28T02:37:08;9.73;;;5.57;;
43337;SDS011;28933;52.492;13.434;2023-02-28T02:39:53;8.20;;;5.35;;
43337;SDS011;28933;52.492;13.434;2023-02-28T02:42:39;8.65;;;5.18;;
43337;SDS011;28933;52.492;13.434;2023-02-28T02:47:41;8.55;;;5.85;;
43337;SDS011;28933;52.492;13.434;2023-02-28T02:50:11;9.45;;;6.32;;
43337;SDS011;28933;52.492;13.434;2023-02-28T02:52:42;10.50;;;6.22;;
43337;SDS011;28933;52.492;13.434;2023-02-28T02:55:12;9.32;;;5.78;;
43337;SDS011;28933;52.492;13.434;2023-02-28T02:58:13;9.70;;;5.82;;
43337;SDS011;28933;52.492;13.434;2023-02-28T03:00:35;8.55;;;5.63;;
43337;SDS011;28933;52.492;13.434;2023-02-28T03:03:04;11.90;;;6.25;;
43337;SDS011;28933;52.492;13.434;2023-02-28T03:05:36;11.35;;;6.03;;
43337;SDS011;28933;52.492;13.434;2023-02-28T03:08:09;11.27;;;5.82;;
43337;SDS011;28933;52.492;13.434;2023-02-28T03:10:36;8.85;;;5.40;;
43337;SDS011;28933;52.492;13.434;2023-02-28T03:16:49;12.13;;;5.55;;
43337;SDS011;28933;52.492;13.434;2023-02-28T03:27:59;8.75;;;5.03;;
43337;SDS011;28933;52.492;13.434;2023-02-28T03:30:24;10.60;;;5.13;;
43337;SDS011;28933;52.492;13.434;2023-02-28T03:33:04;9.52;;;5.90;;
43337;SDS011;28933;52.492;13.434;2023-02-28T03:35:32;8.15;;;5.32;;
43337;SDS011;28933;52.492;13.434;2023-02-28T03:38:21;10.32;;;5.60;;
43337;SDS011;28933;52.492;13.434;2023-02-28T03:41:07;7.85;;;4.60;;
43337;SDS011;28933;52.492;13.434;2023-02-28T03:43:36;10.13;;;5.25;;
43337;SDS011;28933;52.492;13.434;2023-02-28T03:46:08;9.38;;;5.63;;
43337;SDS011;28933;52.492;13.434;2023-02-28T03:48:42;10.88;;;5.72;;
43337;SDS011;28933;52.492;13.434;2023-02-28T03:51:15;7.95;;;5.50;;
43337;SDS011;28933;52.492;13.434;2023-02-28T03:53:47;7.38;;;5.07;;
43337;SDS011;28933;52.492;13.434;2023-02-28T03:56:29;9.23;;;5.05;;
43337;SDS011;28933;52.492;13.434;2023-02-28T03:59:15;9.35;;;4.82;;
43337;SDS011;28933;52.492;13.434;2023-02-28T04:01:47;9.73;;;5.20;;
43337;SDS011;28933;52.492;13.434;2023-02-28T04:04:14;8.25;;;5.05;;
43337;SDS011;28933;52.492;13.434;2023-02-28T04:06:40;8.32;;;4.93;;
43337;SDS011;28933;52.492;13.434;2023-02-28T04:09:08;8.90;;;5.38;;
43337;SDS011;28933;52.492;13.434;2023-02-28T04:14:03;9.85;;;5.63;;
43337;SDS011;28933;52.492;13.434;2023-02-28T04:16:30;8.00;;;5.15;;
43337;SDS011;28933;52.492;13.434;2023-02-28T04:18:57;9.68;;;5.28;;
43337;SDS011;28933;52.492;13.434;2023-02-28T04:21:28;8.48;;;5.75;;
43337;SDS011;28933;52.492;13.434;2023-02-28T04:23:55;9.25;;;5.13;;
43337;SDS011;28933;52.492;13.434;2023-02-28T04:26:20;9.93;;;5.28;;
43337;SDS011;28933;52.492;13.434;2023-02-28T04:28:46;8.82;;;5.30;;
43337;SDS011;28933;52.492;13.434;2023-02-28T04:31:12;9.68;;;5.43;;
43337;SDS011;28933;52.492;13.434;2023-02-28T04:33:37;8.95;;;5.80;;
43337;SDS011;28933;52.492;13.434;2023-02-28T04:36:07;8.82;;;5.25;;
43337;SDS011;28933;52.492;13.434;2023-02-28T04:38:37;8.07;;;4.82;;
43337;SDS011;28933;52.492;13.434;2023-02-28T04:41:03;7.97;;;5.65;;
43337;SDS011;28933;52.492;13.434;2023-02-28T04:43:29;8.68;;;4.90;;
43337;SDS011;28933;52.492;13.434;2023-02-28T04:45:56;9.50;;;5.30;;
43337;SDS011;28933;52.492;13.434;2023-02-28T04:48:33;10.00;;;5.60;;
43337;SDS011;28933;52.492;13.434;2023-02-28T04:51:01;7.53;;;4.90;;
43337;SDS011;28933;52.492;13.434;2023-02-28T04:53:28;9.63;;;4.65;;
43337;SDS011;28933;52.492;13.434;2023-02-28T04:55:54;6.95;;;4.53;;
43337;SDS011;28933;52.492;13.434;2023-02-28T04:58:23;7.57;;;4.93;;
43337;SDS011;28933;52.492;13.434;2023-02-28T05:00:52;8.63;;;5.45;;
43337;SDS011;28933;52.492;13.434;2023-02-28T05:03:19;7.63;;;4.38;;
43337;SDS011;28933;52.492;13.434;2023-02-28T05:05:48;6.82;;;4.60;;
43337;SDS011;28933;52.492;13.434;2023-02-28T05:08:14;9.60;;;4.80;;
43337;SDS011;28933;52.492;13.434;2023-02-28T05:10:39;10.25;;;5.68;;
43337;SDS011;28933;52.492;13.434;2023-02-28T05:13:05;8.55;;;5.35;;
43337;SDS011;28933;52.492;13.434;2023-02-28T05:15:31;7.82;;;5.07;;
43337;SDS011;28933;52.492;13.434;2023-02-28T05:17:56;8.93;;;5.00;;
43337;SDS011;28933;52.492;13.434;2023-02-28T05:20:22;9.70;;;5.97;;
43337;SDS011;28933;52.492;13.434;2023-02-28T05:22:47;9.07;;;5.15;;
43337;SDS011;28933;52.492;13.434;2023-02-28T05:25:17;8.40;;;5.57;;
43337;SDS011;28933;52.492;13.434;2023-02-28T05:27:44;9.25;;;5.53;;
43337;SDS011;28933;52.492;13.434;2023-02-28T05:30:10;8.13;;;5.20;;
43337;SDS011;28933;52.492;13.434;2023-02-28T05:32:37;8.85;;;5.57;;
43337;SDS011;28933;52.492;13.434;2023-02-28T05:35:03;9.85;;;7.28;;
43337;SDS011;28933;52.492;13.434;2023-02-28T05:37:30;11.70;;;8.05;;
43337;SDS011;28933;52.492;13.434;2023-02-28T05:39:55;9.63;;;6.03;;
43337;SDS011;28933;52.492;13.434;2023-02-28T05:42:21;10.45;;;7.00;;
43337;SDS011;28933;52.492;13.434;2023-02-28T05:44:46;10.60;;;6.90;;
43337;SDS011;28933;52.492;13.434;2023-02-28T05:47:12;11.23;;;6.88;;
43337;SDS011;28933;52.492;13.434;2023-02-28T05:49:40;11.05;;;6.43;;
43337;SDS011;28933;52.492;13.434;2023-02-28T05:52:06;11.70;;;5.47;;
43337;SDS011;28933;52.492;13.434;2023-02-28T05:54:32;11.43;;;5.60;;
43337;SDS011;28933;52.492;13.434;2023-02-28T05:56:58;9.93;;;6.28;;
43337;SDS011;28933;52.492;13.434;2023-02-28T05:59:24;9.15;;;6.32;;
43337;SDS011;28933;52.492;13.434;2023-02-28T06:01:49;11.15;;;6.55;;
43337;SDS011;28933;52.492;13.434;2023-02-28T06:04:16;10.45;;;6.45;;
43337;SDS011;28933;52.492;13.434;2023-02-28T06:06:47;10.43;;;6.57;;
43337;SDS011;28933;52.492;13.434;2023-02-28T06:09:14;13.05;;;6.88;;
43337;SDS011;28933;52.492;13.434;2023-02-28T06:11:40;10.40;;;6.88;;
43337;SDS011;28933;52.492;13.434;2023-02-28T06:14:06;12.90;;;7.70;;
43337;SDS011;28933;52.492;13.434;2023-02-28T06:16:34;11.52;;;7.57;;
43337;SDS011;28933;52.492;13.434;2023-02-28T06:19:01;12.38;;;7.53;;
43337;SDS011;28933;52.492;13.434;2023-02-28T06:21:28;10.35;;;6.60;;
43337;SDS011;28933;52.492;13.434;2023-02-28T06:23:54;10.95;;;7.45;;
43337;SDS011;28933;52.492;13.434;2023-02-28T06:26:21;8.57;;;5.95;;
43337;SDS011;28933;52.492;13.434;2023-02-28T06:28:47;10.57;;;7.28;;
43337;SDS011;28933;52.492;13.434;2023-02-28T06:31:14;11.20;;;6.55;;
43337;SDS011;28933;52.492;13.434;2023-02-28T06:33:41;11.35;;;6.53;;
43337;SDS011;28933;52.492;13.434;2023-02-28T06:36:08;13.10;;;6.90;;
43337;SDS011;28933;52.492;13.434;2023-02-28T06:38:35;11.20;;;7.30;;
43337;SDS011;28933;52.492;13.434;2023-02-28T06:41:02;11.05;;;7.82;;
43337;SDS011;28933;52.492;13.434;2023-02-28T06:43:28;13.13;;;8.10;;
43337;SDS011;28933;52.492;13.434;2023-02-28T06:45:55;12.32;;;8.57;;
43337;SDS011;28933;52.492;13.434;2023-02-28T06:48:25;19.00;;;10.25;;
43337;SDS011;28933;52.492;13.434;2023-02-28T06:50:51;17.45;;;10.27;;
43337;SDS011;28933;52.492;13.434;2023-02-28T06:53:25;17.63;;;10.25;;
43337;SDS011;28933;52.492;13.434;2023-02-28T06:55:51;17.13;;;9.45;;
43337;SDS011;28933;52.492;13.434;2023-02-28T06:58:16;16.92;;;10.18;;
43337;SDS011;28933;52.492;13.434;2023-02-28T07:00:45;21.40;;;11.95;;
43337;SDS011;28933;52.492;13.434;2023-02-28T07:03:12;17.13;;;10.15;;
43337;SDS011;28933;52.492;13.434;2023-02-28T07:05:38;17.33;;;10.52;;
43337;SDS011;28933;52.492;13.434;2023-02-28T07:08:05;16.50;;;9.13;;
43337;SDS011;28933;52.492;13.434;2023-02-28T07:10:32;13.88;;;8.13;;
43337;SDS011;28933;52.492;13.434;2023-02-28T07:12:58;14.18;;;7.72;;
43337;SDS011;28933;52.492;13.434;2023-02-28T07:15:27;11.68;;;7.45;;
43337;SDS011;28933;52.492;13.434;2023-02-28T07:17:53;12.10;;;6.57;;
43337;SDS011;28933;52.492;13.434;2023-02-28T07:20:18;12.23;;;8.15;;
43337;SDS011;28933;52.492;13.434;2023-02-28T07:22:44;17.02;;;9.13;;
43337;SDS011;28933;52.492;13.434;2023-02-28T07:25:09;17.70;;;10.50;;
43337;SDS011;28933;52.492;13.434;2023-02-28T07:27:35;18.90;;;11.13;;
43337;SDS011;28933;52.492;13.434;2023-02-28T07:30:01;24.55;;;13.25;;
43337;SDS011;28933;52.492;13.434;2023-02-28T07:32:28;14.43;;;8.95;;
43337;SDS011;28933;52.492;13.434;2023-02-28T07:34:54;17.45;;;8.23;;
43337;SDS011;28933;52.492;13.434;2023-02-28T07:37:20;14.32;;;7.25;;
43337;SDS011;28933;52.492;13.434;2023-02-28T07:39:45;15.48;;;6.32;;
43337;SDS011;28933;52.492;13.434;2023-02-28T07:42:11;10.85;;;6.38;;
43337;SDS011;28933;52.492;13.434;2023-02-28T07:44:40;13.55;;;7.28;;
43337;SDS011;28933;52.492;13.434;2023-02-28T07:47:10;14.65;;;7.05;;
43337;SDS011;28933;52.492;13.434;2023-02-28T07:49:36;11.65;;;6.45;;
43337;SDS011;28933;52.492;13.434;2023-02-28T07:52:03;10.63;;;6.43;;
43337;SDS011;28933;52.492;13.434;2023-02-28T07:54:30;9.38;;;4.97;;
43337;SDS011;28933;52.492;13.434;2023-02-28T07:56:56;8.68;;;5.45;;
43337;SDS011;28933;52.492;13.434;2023-02-28T07:59:21;9.57;;;4.95;;
43337;SDS011;28933;52.492;13.434;2023-02-28T08:01:47;10.15;;;5.05;;
43337;SDS011;28933;52.492;13.434;2023-02-28T08:04:15;8.05;;;5.47;;
43337;SDS011;28933;52.492;13.434;2023-02-28T08:06:41;6.97;;;4.18;;
43337;SDS011;28933;52.492;13.434;2023-02-28T08:09:07;9.25;;;4.38;;
43337;SDS011;28933;52.492;13.434;2023-02-28T08:11:33;8.20;;;4.30;;
43337;SDS011;28933;52.492;13.434;2023-02-28T08:13:58;7.20;;;4.45;;
43337;SDS011;28933;52.492;13.434;2023-02-28T08:16:24;6.18;;;3.92;;
43337;SDS011;28933;52.492;13.434;2023-02-28T08:18:50;5.80;;;3.70;;
43337;SDS011;28933;52.492;13.434;2023-02-28T08:21:16;6.78;;;3.80;;
43337;SDS011;28933;52.492;13.434;2023-02-28T08:23:43;5.05;;;3.50;;
43337;SDS011;28933;52.492;13.434;2023-02-28T08:26:08;4.85;;;3.45;;
43337;SDS011;28933;52.492;13.434;2023-02-28T08:28:34;5.53;;;3.25;;
43337;SDS011;28933;52.492;13.434;2023-02-28T08:31:00;6.70;;;3.47;;
43337;SDS011;28933;52.492;13.434;2023-02-28T08:33:26;6.65;;;3.92;;
43337;SDS011;28933;52.492;13.434;2023-02-28T08:35:53;4.90;;;3.10;;
43337;SDS011;28933;52.492;13.434;2023-02-28T08:38:20;5.55;;;3.70;;
43337;SDS011;28933;52.492;13.434;2023-02-28T08:40:45;4.82;;;3.00;;
43337;SDS011;28933;52.492;13.434;2023-02-28T08:43:11;6.85;;;3.00;;
43337;SDS011;28933;52.492;13.434;2023-02-28T08:45:37;8.32;;;3.85;;
43337;SDS011;28933;52.492;13.434;2023-02-28T08:48:02;7.45;;;3.30;;
43337;SDS011;28933;52.492;13.434;2023-02-28T08:50:28;5.20;;;3.13;;
43337;SDS011;28933;52.492;13.434;2023-02-28T08:52:54;5.85;;;2.97;;
43337;SDS011;28933;52.492;13.434;2023-02-28T08:55:19;5.78;;;3.30;;
43337;SDS011;28933;52.492;13.434;2023-02-28T08:57:45;5.75;;;3.28;;
43337;SDS011;28933;52.492;13.434;2023-02-28T09:00:11;7.60;;;3.25;;
43337;SDS011;28933;52.492;13.434;2023-02-28T09:02:38;4.72;;;2.90;;
43337;SDS011;28933;52.492;13.434;2023-02-28T09:05:04;4.63;;;2.42;;
43337;SDS011;28933;52.492;13.434;2023-02-28T09:07:30;5.10;;;2.50;;
43337;SDS011;28933;52.492;13.434;2023-02-28T09:09:55;6.43;;;3.42;;
43337;SDS011;28933;52.492;13.434;2023-02-28T09:12:26;5.68;;;3.05;;
43337;SDS011;28933;52.492;13.434;2023-02-28T09:14:53;4.40;;;2.88;;
43337;SDS011;28933;52.492;13.434;2023-02-28T09:17:19;5.32;;;2.47;;
43337;SDS011;28933;52.492;13.434;2023-02-28T09:19:45;6.47;;;3.17;;
43337;SDS011;28933;52.492;13.434;2023-02-28T09:22:13;5.57;;;2.45;;
43337;SDS011;28933;52.492;13.434;2023-02-28T09:24:38;4.05;;;2.20;;
43337;SDS011;28933;52.492;13.434;2023-02-28T09:27:04;5.55;;;2.63;;
43337;SDS011;28933;52.492;13.434;2023-02-28T09:29:31;6.43;;;2.95;;
43337;SDS011;28933;52.492;13.434;2023-02-28T09:31:57;4.72;;;2.47;;
43337;SDS011;28933;52.492;13.434;2023-02-28T09:34:24;6.05;;;2.63;;
43337;SDS011;28933;52.492;13.434;2023-02-28T09:36:50;7.07;;;2.50;;
43337;SDS011;28933;52.492;13.434;2023-02-28T09:39:23;4.03;;;2.55;;
43337;SDS011;28933;52.492;13.434;2023-02-28T09:41:51;5.90;;;2.53;;
43337;SDS011;28933;52.492;13.434;2023-02-28T09:44:40;3.13;;;1.98;;
43337;SDS011;28933;52.492;13.434;2023-02-28T09:49:44;4.38;;;2.42;;
43337;SDS011;28933;52.492;13.434;2023-02-28T09:52:13;10.10;;;3.40;;
43337;SDS011;28933;52.492;13.434;2023-02-28T09:54:44;4.43;;;2.22;;
43337;SDS011;28933;52.492;13.434;2023-02-28T10:00:07;6.95;;;2.85;;
43337;SDS011;28933;52.492;13.434;2023-02-28T10:02:48;3.33;;;1.85;;
43337;SDS011;28933;52.492;13.434;2023-02-28T10:05:35;2.83;;;1.85;;
43337;SDS011;28933;52.492;13.434;2023-02-28T10:10:50;5.30;;;2.53;;
43337;SDS011;28933;52.492;13.434;2023-02-28T10:16:34;4.38;;;2.33;;
43337;SDS011;28933;52.492;13.434;2023-02-28T10:22:14;3.10;;;1.88;;
43337;SDS011;28933;52.492;13.434;2023-02-28T10:24:53;4.20;;;2.42;;
43337;SDS011;28933;52.492;13.434;2023-02-28T10:27:25;3.78;;;2.35;;
43337;SDS011;28933;52.492;13.434;2023-02-28T10:29:54;3.03;;;2.05;;
43337;SDS011;28933;52.492;13.434;2023-02-28T10:32:26;4.63;;;2.47;;
43337;SDS011;28933;52.492;13.434;2023-02-28T10:37:41;5.28;;;2.90;;
43337;SDS011;28933;52.492;13.434;2023-02-28T10:40:27;7.25;;;2.25;;
43337;SDS011;28933;52.492;13.434;2023-02-28T10:42:58;6.82;;;2.50;;
43337;SDS011;28933;52.492;13.434;2023-02-28T10:45:27;4.30;;;2.50;;
43337;SDS011;28933;52.492;13.434;2023-02-28T10:48:01;4.38;;;2.63;;
43337;SDS011;28933;52.492;13.434;2023-02-28T10:55:41;3.65;;;2.30;;
43337;SDS011;28933;52.492;13.434;2023-02-28T10:58:23;3.60;;;2.33;;
43337;SDS011;28933;52.492;13.434;2023-02-28T11:00:50;4.72;;;2.38;;
43337;SDS011;28933;52.492;13.434;2023-02-28T11:03:29;3.80;;;2.22;;
43337;SDS011;28933;52.492;13.434;2023-02-28T11:06:03;5.70;;;3.17;;
43337;SDS011;28933;52.492;13.434;2023-02-28T11:08:32;5.32;;;2.90;;
43337;SDS011;28933;52.492;13.434;2023-02-28T11:11:00;5.90;;;2.72;;
43337;SDS011;28933;52.492;13.434;2023-02-28T11:13:35;5.25;;;3.17;;
43337;SDS011;28933;52.492;13.434;2023-02-28T11:16:05;4.20;;;2.57;;
43337;SDS011;28933;52.492;13.434;2023-02-28T11:18:36;5.43;;;3.00;;
43337;SDS011;28933;52.492;13.434;2023-02-28T11:21:18;3.95;;;2.50;;
43337;SDS011;28933;52.492;13.434;2023-02-28T11:23:51;5.13;;;2.40;;
43337;SDS011;28933;52.492;13.434;2023-02-28T11:26:35;4.45;;;2.75;;
43337;SDS011;28933;52.492;13.434;2023-02-28T11:29:17;5.40;;;2.92;;
43337;SDS011;28933;52.492;13.434;2023-02-28T11:31:46;3.60;;;2.33;;
43337;SDS011;28933;52.492;13.434;2023-02-28T11:34:44;5.95;;;3.25;;
43337;SDS011;28933;52.492;13.434;2023-02-28T11:37:15;4.43;;;2.92;;
43337;SDS011;28933;52.492;13.434;2023-02-28T11:39:43;4.20;;;2.47;;
43337;SDS011;28933;52.492;13.434;2023-02-28T11:50:33;7.10;;;3.42;;
43337;SDS011;28933;52.492;13.434;2023-02-28T11:53:21;7.32;;;3.10;;
43337;SDS011;28933;52.492;13.434;2023-02-28T11:56:10;4.72;;;3.10;;
43337;SDS011;28933;52.492;13.434;2023-02-28T11:58:53;6.97;;;4.38;;
43337;SDS011;28933;52.492;13.434;2023-02-28T12:04:25;7.03;;;3.78;;
43337;SDS011;28933;52.492;13.434;2023-02-28T12:07:11;8.25;;;3.80;;
43337;SDS011;28933;52.492;13.434;2023-02-28T12:20:34;6.55;;;3.80;;
43337;SDS011;28933;52.492;13.434;2023-02-28T12:28:44;5.75;;;2.97;;
43337;SDS011;28933;52.492;13.434;2023-02-28T12:31:20;4.97;;;3.00;;
43337;SDS011;28933;52.492;13.434;2023-02-28T12:33:53;5.50;;;3.00;;
43337;SDS011;28933;52.492;13.434;2023-02-28T12:36:39;3.85;;;2.67;;
43337;SDS011;28933;52.492;13.434;2023-02-28T12:45:22;6.03;;;2.88;;
43337;SDS011;28933;52.492;13.434;2023-02-28T12:47:23;5.78;;;2.97;;
43337;SDS011;28933;52.492;13.434;2023-02-28T12:49:50;4.22;;;2.60;;
43337;SDS011;28933;52.492;13.434;2023-02-28T12:52:47;5.13;;;2.75;;
43337;SDS011;28933;52.492;13.434;2023-02-28T13:00:25;5.18;;;2.88;;
43337;SDS011;28933;52.492;13.434;2023-02-28T13:08:27;5.57;;;2.80;;
43337;SDS011;28933;52.492;13.434;2023-02-28T13:14:21;5.95;;;2.45;;
43337;SDS011;28933;52.492;13.434;2023-02-28T13:19:39;5.63;;;2.90;;
43337;SDS011;28933;52.492;13.434;2023-02-28T13:25:01;3.80;;;2.55;;
43337;SDS011;28933;52.492;13.434;2023-02-28T13:30:59;6.25;;;2.63;;
43337;SDS011;28933;52.492;13.434;2023-02-28T13:36:01;4.13;;;2.80;;
43337;SDS011;28933;52.492;13.434;2023-02-28T13:38:41;3.95;;;2.50;;
43337;SDS011;28933;52.492;13.434;2023-02-28T13:44:06;4.22;;;2.63;;
43337;SDS011;28933;52.492;13.434;2023-02-28T13:46:32;5.30;;;2.90;;
43337;SDS011;28933;52.492;13.434;2023-02-28T13:52:32;4.57;;;2.83;;
43337;SDS011;28933;52.492;13.434;2023-02-28T14:09:15;6.18;;;3.10;;
43337;SDS011;28933;52.492;13.434;2023-02-28T14:11:50;3.95;;;2.70;;
43337;SDS011;28933;52.492;13.434;2023-02-28T14:17:00;4.20;;;2.90;;
43337;SDS011;28933;52.492;13.434;2023-02-28T14:19:32;6.55;;;3.17;;
43337;SDS011;28933;52.492;13.434;2023-02-28T14:25:08;5.47;;;3.10;;
43337;SDS011;28933;52.492;13.434;2023-02-28T14:27:53;4.20;;;2.78;;
43337;SDS011;28933;52.492;13.434;2023-02-28T14:33:25;4.65;;;2.78;;
43337;SDS011;28933;52.492;13.434;2023-02-28T14:38:47;6.35;;;3.60;;
43337;SDS011;28933;52.492;13.434;2023-02-28T14:41:32;6.28;;;2.97;;
43337;SDS011;28933;52.492;13.434;2023-02-28T14:44:02;5.60;;;3.17;;
43337;SDS011;28933;52.492;13.434;2023-02-28T14:46:39;5.53;;;2.95;;
43337;SDS011;28933;52.492;13.434;2023-02-28T14:49:07;5.10;;;2.90;;
43337;SDS011;28933;52.492;13.434;2023-02-28T14:51:40;5.30;;;3.60;;
43337;SDS011;28933;52.492;13.434;2023-02-28T14:54:07;8.40;;;3.28;;
43337;SDS011;28933;52.492;13.434;2023-02-28T14:56:39;4.53;;;2.92;;
43337;SDS011;28933;52.492;13.434;2023-02-28T14:59:05;6.47;;;3.28;;
43337;SDS011;28933;52.492;13.434;2023-02-28T15:01:47;5.28;;;3.45;;
43337;SDS011;28933;52.492;13.434;2023-02-28T15:04:18;5.72;;;3.35;;
43337;SDS011;28933;52.492;13.434;2023-02-28T15:07:12;5.38;;;3.10;;
43337;SDS011;28933;52.492;13.434;2023-02-28T15:09:39;4.40;;;3.25;;
43337;SDS011;28933;52.492;13.434;2023-02-28T15:12:05;5.30;;;2.90;;
43337;SDS011;28933;52.492;13.434;2023-02-28T15:14:31;6.55;;;3.63;;
43337;SDS011;28933;52.492;13.434;2023-02-28T15:16:59;6.22;;;3.08;;
43337;SDS011;28933;52.492;13.434;2023-02-28T15:19:32;7.53;;;3.35;;
43337;SDS011;28933;52.492;13.434;2023-02-28T15:22:03;4.10;;;2.97;;
43337;SDS011;28933;52.492;13.434;2023-02-28T15:24:54;5.65;;;3.50;;
43337;SDS011;28933;52.492;13.434;2023-02-28T15:27:27;5.78;;;3.80;;
43337;SDS011;28933;52.492;13.434;2023-02-28T15:29:59;6.60;;;4.00;;
43337;SDS011;28933;52.492;13.434;2023-02-28T15:34:58;7.15;;;4.28;;
43337;SDS011;28933;52.492;13.434;2023-02-28T15:37:46;6.53;;;3.70;;
43337;SDS011;28933;52.492;13.434;2023-02-28T15:40:26;6.57;;;3.42;;
43337;SDS011;28933;52.492;13.434;2023-02-28T15:43:37;4.45;;;3.00;;
43337;SDS011;28933;52.492;13.434;2023-02-28T15:46:05;4.80;;;3.13;;
43337;SDS011;28933;52.492;13.434;2023-02-28T15:48:44;5.90;;;3.42;;
43337;SDS011;28933;52.492;13.434;2023-02-28T15:51:32;4.47;;;2.85;;
43337;SDS011;28933;52.492;13.434;2023-02-28T15:54:02;5.82;;;3.33;;
43337;SDS011;28933;52.492;13.434;2023-02-28T15:56:35;6.30;;;3.13;;
43337;SDS011;28933;52.492;13.434;2023-02-28T15:59:08;5.72;;;3.47;;
43337;SDS011;28933;52.492;13.434;2023-02-28T16:01:43;6.88;;;3.50;;
43337;SDS011;28933;52.492;13.434;2023-02-28T16:04:16;6.40;;;3.42;;
43337;SDS011;28933;52.492;13.434;2023-02-28T16:09:25;4.85;;;2.97;;
43337;SDS011;28933;52.492;13.434;2023-02-28T16:11:52;6.60;;;2.97;;
43337;SDS011;28933;52.492;13.434;2023-02-28T16:14:24;5.97;;;3.08;;
43337;SDS011;28933;52.492;13.434;2023-02-28T16:17:02;4.97;;;3.03;;
43337;SDS011;28933;52.492;13.434;2023-02-28T16:19:31;4.45;;;2.72;;
43337;SDS011;28933;52.492;13.434;2023-02-28T16:21:57;4.72;;;3.30;;
43337;SDS011;28933;52.492;13.434;2023-02-28T16:24:23;6.00;;;3.00;;
43337;SDS011;28933;52.492;13.434;2023-02-28T16:26:49;5.88;;;4.45;;
43337;SDS011;28933;52.492;13.434;2023-02-28T16:29:27;5.93;;;3.75;;
43337;SDS011;28933;52.492;13.434;2023-02-28T16:31:58;7.15;;;3.83;;
43337;SDS011;28933;52.492;13.434;2023-02-28T16:34:24;5.10;;;4.03;;
43337;SDS011;28933;52.492;13.434;2023-02-28T16:36:50;6.10;;;4.10;;
43337;SDS011;28933;52.492;13.434;2023-02-28T16:39:16;6.25;;;3.80;;
43337;SDS011;28933;52.492;13.434;2023-02-28T16:41:43;5.75;;;3.90;;
43337;SDS011;28933;52.492;13.434;2023-02-28T16:44:11;6.85;;;3.80;;
43337;SDS011;28933;52.492;13.434;2023-02-28T16:46:42;6.70;;;3.78;;
43337;SDS011;28933;52.492;13.434;2023-02-28T16:49:10;5.60;;;3.40;;
43337;SDS011;28933;52.492;13.434;2023-02-28T16:51:37;5.25;;;2.90;;
43337;SDS011;28933;52.492;13.434;2023-02-28T16:54:03;7.53;;;4.82;;
43337;SDS011;28933;52.492;13.434;2023-02-28T16:56:28;12.73;;;7.10;;
43337;SDS011;28933;52.492;13.434;2023-02-28T16:58:55;13.00;;;7.70;;
43337;SDS011;28933;52.492;13.434;2023-02-28T17:01:25;10.02;;;6.60;;
43337;SDS011;28933;52.492;13.434;2023-02-28T17:03:52;8.93;;;5.88;;
43337;SDS011;28933;52.492;13.434;2023-02-28T17:06:25;9.13;;;6.20;;
43337;SDS011;28933;52.492;13.434;2023-02-28T17:08:53;9.48;;;5.95;;
43337;SDS011;28933;52.492;13.434;2023-02-28T17:11:19;10.82;;;6.53;;
43337;SDS011;28933;52.492;13.434;2023-02-28T17:13:46;11.73;;;6.65;;
43337;SDS011;28933;52.492;13.434;2023-02-28T17:18:54;7.55;;;5.13;;